createdAt,value
2023-05-01T00:00:53.020Z,16.95
2023-05-01T00:06:40.084Z,19.35
2023-05-01T00:12:27.138Z,15.82
2023-05-01T00:18:14.702Z,19.42
2023-05-01T00:24:02.700Z,20.65
2023-05-01T00:29:50.843Z,17.45
2023-05-01T00:35:44.281Z,19.48
2023-05-01T00:41:34.110Z,19.10
2023-05-01T00:47:21.503Z,21.58
2023-05-01T00:53:08.517Z,21.27
2023-05-01T00:58:56.833Z,17.05
2023-05-01T01:04:48.716Z,19.90
2023-05-01T01:10:50.061Z,17.95
2023-05-01T01:16:41.899Z,20.70
2023-05-01T01:22:29.621Z,15.90
2023-05-01T01:28:43.764Z,15.90
2023-05-01T01:34:36.359Z,17.90
2023-05-01T01:46:13.041Z,17.05
2023-05-01T01:52:03.394Z,19.55
2023-05-01T01:57:51.730Z,16.42
2023-05-01T02:03:41.402Z,20.90
2023-05-01T02:09:29.812Z,15.75
2023-05-01T02:15:19.096Z,21.33
2023-05-01T02:21:06.938Z,20.25
2023-05-01T02:27:22.046Z,20.33
2023-05-01T02:33:09.162Z,20.05
2023-05-01T02:38:56.184Z,15.13
2023-05-01T02:44:51.026Z,27.25
2023-05-01T02:50:40.752Z,18.58
2023-05-01T02:56:28.085Z,19.38
2023-05-01T03:02:15.903Z,27.30
2023-05-01T03:08:04.239Z,23.52
2023-05-01T03:13:51.285Z,23.90
2023-05-01T03:19:37.993Z,24.15
2023-05-01T03:25:27.707Z,24.75
2023-05-01T03:31:14.570Z,25.02
2023-05-01T03:37:02.232Z,24.45
2023-05-01T03:42:49.152Z,25.17
2023-05-01T03:48:40.629Z,22.17
2023-05-01T03:54:29.992Z,22.05
2023-05-01T04:00:19.497Z,21.43
2023-05-01T04:06:07.927Z,20.40
2023-05-01T04:11:54.840Z,20.73
2023-05-01T04:17:46.377Z,30.20
2023-05-01T04:23:34.819Z,16.10
2023-05-01T04:29:22.040Z,15.43
2023-05-01T04:35:09.635Z,13.88
2023-05-01T04:40:59.794Z,16.33
2023-05-01T04:46:46.720Z,10.43
2023-05-01T04:52:35.972Z,8.50
2023-05-01T04:58:25.593Z,10.40
2023-05-01T05:04:18.804Z,7.47
2023-05-01T05:10:09.736Z,7.63
2023-05-01T05:15:57.283Z,20.15
2023-05-01T05:21:45.850Z,14.15
2023-05-01T05:27:37.898Z,8.95
2023-05-01T05:33:25.404Z,11.38
2023-05-01T05:39:15.550Z,6.55
2023-05-01T05:45:02.554Z,9.18
2023-05-01T05:50:51.163Z,5.15
2023-05-01T05:56:38.060Z,9.32
2023-05-01T06:02:26.530Z,7.47
2023-05-01T06:08:14.616Z,11.65
2023-05-01T06:14:02.869Z,7.25
2023-05-01T06:19:54.193Z,17.38
2023-05-01T06:25:41.421Z,9.45
2023-05-01T06:31:28.350Z,10.15
2023-05-01T06:37:23.512Z,8.13
2023-05-01T06:43:14.769Z,9.95
2023-05-01T06:49:03.012Z,8.48
2023-05-01T06:54:58.932Z,6.70
2023-05-01T07:00:47.084Z,9.73
2023-05-01T07:06:35.909Z,8.57
2023-05-01T07:12:23.545Z,18.02
2023-05-01T07:18:14.554Z,7.47
2023-05-01T07:24:05.765Z,15.98
2023-05-01T07:29:56.266Z,8.05
2023-05-01T07:35:53.519Z,7.55
2023-05-01T07:41:49.790Z,8.20
2023-05-01T07:47:41.729Z,8.15
2023-05-01T07:53:42.822Z,7.40
2023-05-01T07:59:38.099Z,3.40
2023-05-01T08:05:35.624Z,7.00
2023-05-01T08:11:30.208Z,7.20
2023-05-01T08:17:21.326Z,4.22
2023-05-01T08:23:13.290Z,14.05
2023-05-01T08:29:00.131Z,5.60
2023-05-01T08:34:57.413Z,12.57
2023-05-01T08:47:18.264Z,7.00
2023-05-01T08:53:14.507Z,9.05
2023-05-01T08:59:07.073Z,10.50
2023-05-01T09:04:58.053Z,8.30
2023-05-01T09:10:48.225Z,5.90
2023-05-01T09:16:36.594Z,6.90
2023-05-01T09:22:27.073Z,6.72
2023-05-01T09:34:04.744Z,14.05
2023-05-01T09:40:11.133Z,7.30
2023-05-01T09:46:13.259Z,10.27
2023-05-01T09:52:11.864Z,5.43
2023-05-01T09:58:01.691Z,5.82
2023-05-01T10:03:55.110Z,10.85
2023-05-01T10:09:42.393Z,7.57
2023-05-01T10:15:39.920Z,6.28
2023-05-01T10:21:28.592Z,10.68
2023-05-01T10:27:18.900Z,13.45
2023-05-01T10:33:06.074Z,6.53
2023-05-01T10:38:55.704Z,6.93
2023-05-01T10:44:43.232Z,11.82
2023-05-01T10:50:34.968Z,10.73
2023-05-01T10:56:23.890Z,4.55
2023-05-01T11:02:23.367Z,4.75
2023-05-01T11:08:33.359Z,11.85
2023-05-01T11:14:20.765Z,6.18
2023-05-01T11:20:09.267Z,6.75
2023-05-01T11:26:05.715Z,5.43
2023-05-01T11:31:52.907Z,3.65
2023-05-01T11:37:44.630Z,9.23
2023-05-01T11:43:31.861Z,4.57
2023-05-01T11:49:28.212Z,3.25
2023-05-01T11:55:16.967Z,3.05
2023-05-01T12:01:08.348Z,2.25
2023-05-01T12:07:00.315Z,4.60
2023-05-01T12:12:59.485Z,2.95
2023-05-01T12:18:49.238Z,9.18
2023-05-01T12:24:56.695Z,1.77
2023-05-01T12:36:41.103Z,4.13
2023-05-01T12:42:40.496Z,4.03
2023-05-01T12:48:52.364Z,4.72
2023-05-01T12:54:50.601Z,0.93
2023-05-01T13:00:55.838Z,0.20
2023-05-01T13:06:43.374Z,0.55
2023-05-01T13:13:04.086Z,2.05
2023-05-01T13:18:52.952Z,1.60
2023-05-01T13:24:41.727Z,5.45
2023-05-01T13:30:34.752Z,1.08
2023-05-01T13:36:26.385Z,4.97
2023-05-01T13:48:11.046Z,3.20
2023-05-01T13:53:58.293Z,2.88
2023-05-01T13:59:49.212Z,1.60
2023-05-01T14:05:37.027Z,4.15
2023-05-01T14:11:23.884Z,2.75
2023-05-01T14:17:16.638Z,4.28
2023-05-01T14:23:10.663Z,3.08
2023-05-01T14:29:01.278Z,3.30
2023-05-01T14:34:50.370Z,7.78
2023-05-01T14:40:40.463Z,5.35
2023-05-01T14:46:33.978Z,2.60
2023-05-01T14:52:21.568Z,5.57
2023-05-01T14:58:08.746Z,7.85
2023-05-01T15:03:56.100Z,0.98
2023-05-01T15:09:44.524Z,7.40
2023-05-01T15:15:31.923Z,1.88
2023-05-01T15:21:18.913Z,2.97
2023-05-01T15:27:09.823Z,2.35
2023-05-01T15:32:57.433Z,1.52
2023-05-01T15:38:44.989Z,3.05
2023-05-01T15:44:35.339Z,4.07
2023-05-01T15:50:24.496Z,1.38
2023-05-01T15:56:15.302Z,1.88
2023-05-01T16:02:02.920Z,1.45
2023-05-01T16:07:58.023Z,1.77
2023-05-01T16:13:51.225Z,1.05
2023-05-01T16:19:42.462Z,3.83
2023-05-01T16:25:32.380Z,4.22
2023-05-01T16:31:27.088Z,2.42
2023-05-01T16:37:18.321Z,2.33
2023-05-01T16:43:07.305Z,6.07
2023-05-01T16:49:00.494Z,2.95
2023-05-01T16:54:57.018Z,4.10
2023-05-01T17:00:44.007Z,1.08
2023-05-01T17:06:33.492Z,4.63
2023-05-01T17:12:27.680Z,4.57
2023-05-01T17:18:15.992Z,3.72
2023-05-01T17:24:03.321Z,3.78
2023-05-01T17:29:52.166Z,2.63
2023-05-01T17:35:46.082Z,6.25
2023-05-01T17:41:37.421Z,7.88
2023-05-01T17:47:26.042Z,3.85
2023-05-01T17:53:13.261Z,2.45
2023-05-01T17:59:00.168Z,1.70
2023-05-01T18:04:50.332Z,3.58
2023-05-01T18:10:37.543Z,1.83
2023-05-01T18:16:26.782Z,3.55
2023-05-01T18:22:14.045Z,7.55
2023-05-01T18:28:00.951Z,13.05
2023-05-01T18:33:48.657Z,7.18
2023-05-01T18:39:44.801Z,4.15
2023-05-01T18:45:37.681Z,1.98
2023-05-01T18:51:33.422Z,2.45
2023-05-01T18:57:23.391Z,6.53
2023-05-01T19:03:19.872Z,7.63
2023-05-01T19:09:08.828Z,6.15
2023-05-01T19:14:56.116Z,4.07
2023-05-01T19:20:46.404Z,5.57
2023-05-01T19:26:48.505Z,4.47
2023-05-01T19:32:36.346Z,5.68
2023-05-01T19:38:26.230Z,11.10
2023-05-01T19:44:15.700Z,8.00
2023-05-01T19:50:02.730Z,12.88
2023-05-01T19:55:49.626Z,11.07
2023-05-01T20:01:45.174Z,9.93
2023-05-01T20:07:32.429Z,10.65
2023-05-01T20:13:19.215Z,10.13
2023-05-01T20:19:06.580Z,15.55
2023-05-01T20:24:53.271Z,14.95
2023-05-01T20:30:41.814Z,9.63
2023-05-01T20:36:33.022Z,10.95
2023-05-01T20:42:20.182Z,5.82
2023-05-01T20:48:09.780Z,5.20
2023-05-01T20:54:04.367Z,14.00
2023-05-01T20:59:55.562Z,8.85
2023-05-01T21:05:43.162Z,12.52
2023-05-01T21:11:33.015Z,5.30
2023-05-01T21:17:23.763Z,3.22
2023-05-01T21:23:21.250Z,3.92
2023-05-01T21:29:08.351Z,4.45
2023-05-01T21:34:55.227Z,3.22
2023-05-01T21:40:43.168Z,8.25
2023-05-01T21:46:33.188Z,4.93
2023-05-01T21:52:20.277Z,8.65
2023-05-01T21:58:11.217Z,5.22
2023-05-01T22:04:00.202Z,5.55
2023-05-01T22:09:55.292Z,6.03
2023-05-01T22:15:42.069Z,5.65
2023-05-01T22:21:41.900Z,3.58
2023-05-01T22:27:29.687Z,3.55
2023-05-01T22:33:17.916Z,4.47
2023-05-01T22:39:07.880Z,3.72
2023-05-01T22:44:55.163Z,5.00
2023-05-01T22:50:44.972Z,5.65
2023-05-01T22:56:31.779Z,3.92
2023-05-01T23:02:20.739Z,4.43
2023-05-01T23:08:11.527Z,6.47
2023-05-01T23:13:58.832Z,3.58
2023-05-01T23:19:45.812Z,5.03
2023-05-01T23:25:32.793Z,5.47
2023-05-01T23:31:27.506Z,8.05
2023-05-01T23:37:14.472Z,2.15
2023-05-01T23:43:01.185Z,2.45
2023-05-01T23:48:48.102Z,9.85
2023-05-01T23:54:34.793Z,4.20
